Time;durP1;ratioP1;P1;durP2;ratioP2;P2;SDS_P1;SDS_P2;PMS_P1;PMS_P2;Temp;Humidity;BMP_temperature;BMP_pressure;BME280_temperature;BME280_humidity;BME280_pressure;Samples;Min_cycle;Max_cycle;Signal;HPM_P1;HPM_P2
2022/03/31 00:00:32;;;;;;;12.80;7.60;;;;;;;-0.31;100.00;98007.84;103579;1300;24372;-31
2022/03/31 00:02:58;;;;;;;12.70;8.50;;;;;;;-0.33;100.00;98011.55;103558;1300;22508;-30
2022/03/31 00:05:24;;;;;;;15.80;7.90;;;;;;;-0.28;100.00;98006.42;103610;1300;24303;-30
2022/03/31 00:07:51;;;;;;;7.00;5.50;;;;;;;-0.23;100.00;98001.90;103523;1300;24443;-24
2022/03/31 00:10:20;;;;;;;7.50;5.20;;;;;;;-0.28;100.00;98004.88;103573;1300;24372;-25
2022/03/31 00:12:47;;;;;;;14.20;7.30;;;;;;;-0.30;100.00;98003.29;103572;1300;22594;-25
2022/03/31 00:15:12;;;;;;;9.00;7.00;;;;;;;-0.31;100.00;98003.39;103656;1300;24241;-26
2022/03/31 00:17:38;;;;;;;7.80;6.00;;;;;;;-0.28;100.00;98007.39;103553;1300;24241;-27
2022/03/31 00:20:04;;;;;;;9.30;6.70;;;;;;;-0.31;100.00;98008.23;103482;1302;24299;-29
2022/03/31 00:22:30;;;;;;;8.40;6.20;;;;;;;-0.31;100.00;98006.26;103555;1300;24318;-25
2022/03/31 00:24:55;;;;;;;7.40;5.70;;;;;;;-0.32;100.00;98000.73;103526;1300;24253;-31
2022/03/31 00:27:21;;;;;;;6.40;3.90;;;;;;;-0.34;100.00;97999.77;103535;1300;24213;-30
2022/03/31 00:29:47;;;;;;;10.80;6.00;;;;;;;-0.31;100.00;98000.94;103571;1300;24378;-25
2022/03/31 00:32:13;;;;;;;7.90;4.90;;;;;;;-0.26;100.00;97999.97;103579;1300;24237;-25
2022/03/31 00:34:39;;;;;;;10.10;7.50;;;;;;;-0.25;100.00;97999.98;103528;1300;24226;-24
2022/03/31 00:37:05;;;;;;;8.00;7.10;;;;;;;-0.27;100.00;97996.27;103562;1300;24344;-30
2022/03/31 00:39:32;;;;;;;5.10;4.30;;;;;;;-0.26;100.00;98001.39;103573;1300;24289;-25
2022/03/31 00:41:59;;;;;;;6.90;6.00;;;;;;;-0.27;100.00;98005.31;103482;1300;22513;-23
2022/03/31 00:44:26;;;;;;;9.40;5.60;;;;;;;-0.28;100.00;98010.12;103539;1302;24214;-26
2022/03/31 00:46:53;;;;;;;7.90;7.10;;;;;;;-0.27;100.00;98013.06;103618;1300;24204;-29
2022/03/31 00:49:19;;;;;;;8.90;7.00;;;;;;;-0.23;100.00;98008.62;103613;1300;24328;-31
2022/03/31 00:51:46;;;;;;;12.70;9.30;;;;;;;-0.25;100.00;98007.65;103544;1300;24220;-25
2022/03/31 00:54:12;;;;;;;7.00;6.00;;;;;;;-0.20;100.00;98005.59;103546;1301;22496;-27
2022/03/31 00:56:38;;;;;;;10.00;7.60;;;;;;;-0.20;100.00;98001.10;103559;1300;24340;-25
2022/03/31 00:59:05;;;;;;;12.50;7.80;;;;;;;-0.17;100.00;98002.45;103607;1300;24424;-25
2022/03/31 01:01:32;;;;;;;12.70;8.70;;;;;;;-0.13;100.00;98002.84;103520;1300;24302;-27
2022/03/31 01:04:00;;;;;;;14.40;10.70;;;;;;;-0.06;100.00;98005.20;103531;1300;24344;-29
2022/03/31 01:06:26;;;;;;;7.10;5.40;;;;;;;-0.06;100.00;98002.86;103610;1300;23510;-25
2022/03/31 01:08:51;;;;;;;7.90;6.70;;;;;;;-0.11;100.00;98002.90;103499;1300;24410;-29
2022/03/31 01:11:18;;;;;;;12.90;8.70;;;;;;;-0.14;100.00;98001.11;103567;1300;22501;-28
2022/03/31 01:13:45;;;;;;;13.50;10.00;;;;;;;-0.08;100.00;98000.45;103532;1300;23548;-26
2022/03/31 01:16:11;;;;;;;12.90;9.90;;;;;;;-0.07;100.00;98001.87;103520;1300;22503;-30
2022/03/31 01:18:37;;;;;;;17.80;13.50;;;;;;;0.03;100.00;97998.55;103556;1300;24342;-30
2022/03/31 01:21:02;;;;;;;10.70;7.50;;;;;;;0.00;100.00;97993.80;103496;1300;24314;-29
2022/03/31 01:23:28;;;;;;;16.70;11.80;;;;;;;-0.04;100.00;97994.83;103589;1300;23639;-25
2022/03/31 01:25:54;;;;;;;12.20;9.20;;;;;;;0.00;100.00;97995.92;103465;1300;24281;-30
2022/03/31 01:28:20;;;;;;;14.00;8.80;;;;;;;-0.04;100.00;97993.67;103504;1300;24314;-25
2022/03/31 01:30:45;;;;;;;17.00;11.80;;;;;;;-0.04;100.00;97997.21;103570;1300;23600;-29
2022/03/31 01:33:11;;;;;;;14.10;10.60;;;;;;;0.14;100.00;97995.52;103528;1300;24229;-28
2022/03/31 01:35:37;;;;;;;9.80;7.40;;;;;;;0.04;100.00;97997.59;103563;1300;24435;-25
2022/03/31 01:38:03;;;;;;;9.70;7.60;;;;;;;0.05;100.00;98000.11;103543;1300;24302;-27
2022/03/31 01:40:29;;;;;;;7.00;5.00;;;;;;;0.11;100.00;98001.13;103496;1300;24232;-26
2022/03/31 01:42:55;;;;;;;14.10;9.10;;;;;;;0.00;100.00;98004.36;103534;1300;22502;-29
2022/03/31 01:45:22;;;;;;;14.90;10.20;;;;;;;0.17;100.00;98000.16;103524;1300;24461;-25
2022/03/31 01:47:48;;;;;;;13.30;10.20;;;;;;;0.09;100.00;98006.20;103537;1301;24315;-30
2022/03/31 01:50:14;;;;;;;15.90;12.70;;;;;;;0.04;100.00;98009.05;103431;1302;24008;-25
2022/03/31 01:52:40;;;;;;;31.00;14.90;;;;;;;0.11;100.00;98006.88;103586;1299;22610;-30
2022/03/31 01:55:07;;;;;;;16.40;10.90;;;;;;;0.16;100.00;98003.74;103575;1300;24262;-30
2022/03/31 01:57:32;;;;;;;10.10;6.90;;;;;;;0.21;100.00;98002.95;103584;1300;24308;-26
2022/03/31 02:00:02;;;;;;;21.90;12.90;;;;;;;0.25;100.00;98005.69;103551;1300;22501;-30
2022/03/31 02:02:28;;;;;;;15.20;10.50;;;;;;;0.18;100.00;98009.29;103585;1300;24214;-25
2022/03/31 02:04:54;;;;;;;19.60;13.20;;;;;;;0.21;100.00;98011.30;103605;1300;23631;-27
2022/03/31 02:07:20;;;;;;;20.30;14.00;;;;;;;0.25;100.00;98006.98;103569;1300;24297;-26
2022/03/31 02:09:45;;;;;;;19.20;12.00;;;;;;;0.27;100.00;98009.92;103592;1300;24257;-26
2022/03/31 02:12:11;;;;;;;13.50;9.70;;;;;;;0.25;100.00;98001.20;103552;1300;24251;-31
2022/03/31 02:14:37;;;;;;;13.10;8.30;;;;;;;0.22;100.00;98002.02;103588;1300;24400;-31
2022/03/31 02:17:07;;;;;;;21.20;11.60;;;;;;;0.23;100.00;97998.55;103558;1300;24349;-27
2022/03/31 02:19:34;;;;;;;18.40;12.60;;;;;;;0.25;100.00;98000.67;103596;1300;23540;-25
2022/03/31 02:21:59;;;;;;;13.70;8.50;;;;;;;0.22;100.00;97996.55;103569;1300;24405;-31
2022/03/31 02:24:25;;;;;;;23.00;14.10;;;;;;;0.24;100.00;97997.73;103528;1300;24217;-30
2022/03/31 02:26:51;;;;;;;21.00;12.20;;;;;;;0.33;100.00;98001.52;103421;1300;24216;-27
2022/03/31 02:29:18;;;;;;;24.50;14.80;;;;;;;0.39;100.00;97998.27;103514;1300;23785;-30
2022/03/31 02:31:46;;;;;;;31.50;13.90;;;;;;;0.35;100.00;97995.02;103600;1300;24296;-30
2022/03/31 02:34:13;;;;;;;28.70;16.00;;;;;;;0.43;100.00;97989.00;103525;1300;24230;-31
2022/03/31 02:36:40;;;;;;;27.90;17.40;;;;;;;0.45;100.00;97992.51;103588;1300;22505;-27
2022/03/31 02:39:07;;;;;;;24.00;13.80;;;;;;;0.46;100.00;97992.00;103446;1302;22758;-26
2022/03/31 02:41:33;;;;;;;17.00;12.20;;;;;;;0.36;100.00;97991.13;103445;1299;24304;-25
2022/03/31 02:43:59;;;;;;;14.80;11.10;;;;;;;0.35;100.00;97993.23;103431;1300;24241;-29
2022/03/31 02:46:27;;;;;;;20.60;14.30;;;;;;;0.37;100.00;97997.56;103618;1299;24317;-31
2022/03/31 02:48:54;;;;;;;27.30;13.60;;;;;;;0.58;100.00;97992.66;103518;1300;24281;-29
2022/03/31 02:51:21;;;;;;;18.30;10.60;;;;;;;0.57;100.00;97992.45;103534;1302;24427;-25
2022/03/31 02:56:16;;;;;;;13.10;8.40;;;;;;;0.35;100.00;97988.05;103551;1300;22505;-25
2022/03/31 02:58:42;;;;;;;25.20;13.80;;;;;;;0.38;100.00;97990.23;103586;1300;22876;-29
2022/03/31 03:01:08;;;;;;;17.90;12.10;;;;;;;0.47;100.00;97987.91;103512;1300;24382;-30
2022/03/31 03:03:34;;;;;;;23.40;14.60;;;;;;;0.43;100.00;97985.08;103555;1300;24186;-25
2022/03/31 03:06:00;;;;;;;22.40;13.40;;;;;;;0.54;100.00;97979.38;103577;1300;24265;-29
2022/03/31 03:08:27;;;;;;;17.30;12.40;;;;;;;0.45;100.00;97975.73;103590;1300;24272;-29
2022/03/31 03:10:53;;;;;;;15.70;10.30;;;;;;;0.40;100.00;97976.30;103601;1300;22526;-29
2022/03/31 03:13:19;;;;;;;25.40;14.50;;;;;;;0.45;100.00;97973.64;103550;1301;22516;-32
2022/03/31 03:15:46;;;;;;;19.30;11.60;;;;;;;0.49;100.00;97974.27;103544;1299;24240;-26
2022/03/31 03:18:13;;;;;;;20.60;13.30;;;;;;;0.46;100.00;97977.97;103572;1300;23835;-28
2022/03/31 03:20:39;;;;;;;14.60;9.60;;;;;;;0.42;100.00;97981.28;103558;1300;23752;-27
2022/03/31 03:23:05;;;;;;;16.90;12.40;;;;;;;0.39;100.00;97988.75;103523;1300;24477;-30
2022/03/31 03:25:30;;;;;;;16.20;10.40;;;;;;;0.48;100.00;97990.38;103564;1300;24400;-29
2022/03/31 03:27:58;;;;;;;21.30;13.00;;;;;;;0.40;100.00;97989.27;103563;1300;24253;-29
2022/03/31 03:30:23;;;;;;;16.60;13.60;;;;;;;0.43;100.00;97993.08;103593;1300;24310;-30
2022/03/31 03:32:49;;;;;;;15.30;10.60;;;;;;;0.45;100.00;97992.60;103526;1300;24340;-27
2022/03/31 03:35:15;;;;;;;15.90;10.90;;;;;;;0.41;100.00;97994.48;103472;1300;23945;-29
2022/03/31 03:37:42;;;;;;;17.60;11.60;;;;;;;0.39;100.00;97995.75;103553;1300;24337;-26
2022/03/31 03:40:09;;;;;;;15.80;9.70;;;;;;;0.40;100.00;97993.21;103499;1301;22554;-30
2022/03/31 03:42:38;;;;;;;15.40;9.10;;;;;;;0.38;100.00;97995.27;103555;1300;24220;-29
2022/03/31 03:45:04;;;;;;;18.60;12.00;;;;;;;0.37;100.00;97993.11;103596;1300;24254;-25
2022/03/31 03:47:30;;;;;;;25.90;15.80;;;;;;;0.41;100.00;97993.56;103565;1300;24222;-30
2022/03/31 03:49:56;;;;;;;21.40;14.60;;;;;;;0.59;100.00;97988.81;103546;1300;22610;-30
2022/03/31 03:52:23;;;;;;;23.20;14.50;;;;;;;0.61;100.00;97984.59;103542;1300;24354;-30
2022/03/31 03:54:50;;;;;;;16.60;13.10;;;;;;;0.46;100.00;97976.30;103581;1300;24251;-25
2022/03/31 03:57:16;;;;;;;23.50;14.10;;;;;;;0.47;100.00;97972.89;103611;1300;22594;-29
2022/03/31 03:59:42;;;;;;;14.30;9.70;;;;;;;0.45;100.00;97971.51;103588;1300;23762;-29
2022/03/31 04:02:07;;;;;;;15.90;9.70;;;;;;;0.52;100.00;97973.11;103395;1300;24222;-29
2022/03/31 04:04:33;;;;;;;23.10;15.00;;;;;;;0.48;100.00;97975.23;103497;1300;24257;-27
2022/03/31 04:06:59;;;;;;;14.10;10.30;;;;;;;0.60;100.00;97981.83;103603;1302;24240;-25
2022/03/31 04:09:25;;;;;;;18.80;12.10;;;;;;;0.49;100.00;97986.06;103538;1300;23951;-25
2022/03/31 04:11:51;;;;;;;16.80;10.70;;;;;;;0.50;100.00;97987.88;103569;1300;22780;-26
2022/03/31 04:14:17;;;;;;;23.90;13.60;;;;;;;0.56;100.00;97992.84;103273;1300;395350;-31
2022/03/31 04:16:43;;;;;;;18.40;13.20;;;;;;;0.53;100.00;97992.62;103594;1300;24298;-25
2022/03/31 04:19:09;;;;;;;18.50;13.30;;;;;;;0.70;100.00;97993.00;103566;1300;24343;-30
2022/03/31 04:21:35;;;;;;;24.00;12.40;;;;;;;0.61;100.00;97995.48;103518;1300;23552;-29
2022/03/31 04:24:02;;;;;;;18.10;12.20;;;;;;;0.66;100.00;97995.14;103547;1300;24211;-25
2022/03/31 04:26:28;;;;;;;19.70;11.40;;;;;;;0.51;100.00;98001.84;103561;1300;24292;-26
2022/03/31 04:28:54;;;;;;;13.50;8.40;;;;;;;0.46;100.00;98005.05;103418;1302;24014;-30
2022/03/31 04:31:19;;;;;;;18.80;11.70;;;;;;;0.42;100.00;98012.02;103541;1300;24499;-30
2022/03/31 04:33:45;;;;;;;17.40;11.80;;;;;;;0.43;100.00;98016.31;103530;1300;25109;-30
2022/03/31 04:36:11;;;;;;;12.60;9.40;;;;;;;0.52;100.00;98015.48;103520;1300;24268;-29
2022/03/31 04:38:37;;;;;;;32.30;16.80;;;;;;;0.46;100.00;98017.16;103564;1300;23752;-30
2022/03/31 04:41:03;;;;;;;17.80;11.00;;;;;;;0.46;100.00;98019.11;103580;1297;24358;-29
2022/03/31 04:43:29;;;;;;;15.10;11.20;;;;;;;0.41;100.00;98018.03;103598;1300;24238;-30
2022/03/31 04:45:55;;;;;;;17.80;11.30;;;;;;;0.49;100.00;98012.70;103573;1300;22753;-31
2022/03/31 04:48:20;;;;;;;16.90;11.00;;;;;;;0.44;100.00;98013.50;103650;1300;24279;-25
2022/03/31 04:50:46;;;;;;;17.30;12.00;;;;;;;0.45;100.00;98006.87;103527;1300;24261;-27
2022/03/31 04:53:12;;;;;;;26.10;15.40;;;;;;;0.46;100.00;98006.44;103399;1300;23816;-24
2022/03/31 04:55:38;;;;;;;18.50;10.60;;;;;;;0.51;100.00;98008.38;103618;1299;24366;-24
2022/03/31 04:58:04;;;;;;;20.90;11.40;;;;;;;0.52;100.00;98007.20;103493;1301;22508;-25
2022/03/31 05:00:31;;;;;;;21.00;12.60;;;;;;;0.48;100.00;97998.48;103523;1300;24277;-29
2022/03/31 05:02:59;;;;;;;17.10;12.30;;;;;;;0.47;100.00;98004.23;103603;1300;24385;-30
2022/03/31 05:05:25;;;;;;;16.10;10.10;;;;;;;0.45;100.00;97999.11;103542;1300;24126;-29
2022/03/31 05:07:51;;;;;;;15.20;9.10;;;;;;;0.47;100.00;97998.45;103620;1300;22724;-25
2022/03/31 05:10:17;;;;;;;21.50;10.70;;;;;;;0.46;100.00;98000.30;103555;1300;23819;-30
2022/03/31 05:12:43;;;;;;;17.30;12.10;;;;;;;0.38;100.00;98001.16;103623;1300;24311;-24
2022/03/31 05:15:10;;;;;;;16.60;11.10;;;;;;;0.35;100.00;97999.14;103554;1300;22515;-29
2022/03/31 05:17:37;;;;;;;15.30;9.90;;;;;;;0.36;100.00;97996.99;103650;1300;24224;-30
2022/03/31 05:20:05;;;;;;;19.90;9.90;;;;;;;0.37;100.00;97996.86;103555;1300;24282;-31
2022/03/31 05:22:33;;;;;;;18.60;13.10;;;;;;;0.35;100.00;98000.20;103572;1300;24425;-29
2022/03/31 05:25:00;;;;;;;12.90;7.60;;;;;;;0.41;100.00;98004.12;103605;1300;25320;-26
2022/03/31 05:27:25;;;;;;;22.60;12.20;;;;;;;0.39;100.00;98004.61;103616;1300;24256;-26
2022/03/31 05:29:51;;;;;;;26.60;15.50;;;;;;;0.29;100.00;98010.80;103500;1300;24225;-31
2022/03/31 05:32:17;;;;;;;33.70;13.70;;;;;;;0.38;100.00;98014.00;103535;1300;23634;-26
2022/03/31 05:34:42;;;;;;;22.30;12.40;;;;;;;0.38;100.00;98014.40;103559;1300;24366;-31
2022/03/31 05:37:08;;;;;;;31.40;18.30;;;;;;;0.40;100.00;98017.11;103665;1300;24217;-25
2022/03/31 05:39:34;;;;;;;28.50;17.10;;;;;;;0.50;100.00;98022.61;103544;1300;26145;-30
2022/03/31 05:42:00;;;;;;;26.40;15.70;;;;;;;0.53;100.00;98025.23;103410;1302;24251;-31
2022/03/31 05:44:26;;;;;;;24.30;16.30;;;;;;;0.58;100.00;98029.66;103536;1300;24262;-31
2022/03/31 05:46:52;;;;;;;18.90;12.70;;;;;;;0.64;100.00;98030.25;103437;1300;23638;-30
2022/03/31 05:49:18;;;;;;;25.40;17.70;;;;;;;0.77;100.00;98024.55;103555;1300;23217;-31
2022/03/31 05:51:43;;;;;;;39.00;20.30;;;;;;;0.71;100.00;98017.06;103546;1300;24353;-30
2022/03/31 05:54:10;;;;;;;31.30;17.80;;;;;;;0.68;100.00;98015.62;103553;1300;24213;-30
2022/03/31 05:56:36;;;;;;;24.70;15.50;;;;;;;0.67;100.00;98014.04;103565;1300;24463;-29
2022/03/31 05:59:02;;;;;;;31.10;18.30;;;;;;;0.75;100.00;98016.98;103450;1300;24191;-30
2022/03/31 06:01:28;;;;;;;27.30;16.00;;;;;;;0.81;100.00;98017.11;103519;1300;24240;-25
2022/03/31 06:03:55;;;;;;;17.30;11.40;;;;;;;0.92;100.00;98018.08;103602;1300;24265;-25
2022/03/31 06:06:21;;;;;;;31.40;20.10;;;;;;;0.71;100.00;98020.45;103582;1300;24226;-26
2022/03/31 06:08:47;;;;;;;35.00;18.40;;;;;;;0.79;100.00;98023.27;103372;1300;24247;-26
2022/03/31 06:11:13;;;;;;;32.30;18.70;;;;;;;0.82;100.00;98028.12;103586;1300;24361;-25
2022/03/31 06:13:38;;;;;;;46.70;23.90;;;;;;;0.95;100.00;98037.40;103632;1300;24324;-25
2022/03/31 06:16:04;;;;;;;40.30;25.50;;;;;;;1.15;100.00;98045.26;103583;1300;24245;-27
2022/03/31 06:18:30;;;;;;;44.30;22.10;;;;;;;0.93;100.00;98051.39;103542;1300;24371;-30
2022/03/31 06:20:57;;;;;;;65.80;37.30;;;;;;;1.04;100.00;98052.45;103498;1300;23611;-26
2022/03/31 06:23:23;;;;;;;64.10;31.70;;;;;;;1.13;100.00;98051.20;103591;1300;24199;-26
2022/03/31 06:25:49;;;;;;;57.90;27.80;;;;;;;1.00;100.00;98056.80;103586;1300;24353;-27
2022/03/31 06:28:15;;;;;;;39.30;21.70;;;;;;;0.98;100.00;98057.55;103547;1300;24199;-29
2022/03/31 06:30:41;;;;;;;22.60;13.50;;;;;;;0.91;100.00;98049.42;103661;1300;24217;-25
2022/03/31 06:33:08;;;;;;;16.70;11.70;;;;;;;0.73;100.00;98049.86;103529;1300;24241;-25
2022/03/31 06:35:34;;;;;;;22.80;10.20;;;;;;;0.70;100.00;98052.08;103561;1302;22889;-25
2022/03/31 06:38:00;;;;;;;25.60;14.90;;;;;;;0.69;100.00;98055.71;103601;1300;24346;-29
2022/03/31 06:40:27;;;;;;;18.00;11.20;;;;;;;0.74;100.00;98047.41;103504;1300;24320;-31
2022/03/31 06:42:53;;;;;;;24.70;13.50;;;;;;;0.72;100.00;98058.55;103579;1300;24284;-27
2022/03/31 06:45:19;;;;;;;17.50;11.70;;;;;;;0.70;100.00;98061.92;103522;1302;24308;-25
2022/03/31 06:47:45;;;;;;;19.70;12.80;;;;;;;0.65;100.00;98061.80;103465;1302;24256;-30
2022/03/31 06:50:11;;;;;;;24.50;15.30;;;;;;;0.71;100.00;98062.26;103526;1300;24352;-27
2022/03/31 06:52:37;;;;;;;22.90;13.30;;;;;;;0.85;100.00;98062.44;103527;1300;24247;-29
2022/03/31 06:55:03;;;;;;;29.00;15.20;;;;;;;0.81;100.00;98068.55;103588;1300;24293;-26
2022/03/31 06:57:29;;;;;;;20.00;13.60;;;;;;;0.95;100.00;98068.04;103587;1301;24340;-31
2022/03/31 06:59:55;;;;;;;25.90;15.40;;;;;;;0.85;100.00;98069.80;103488;1300;24236;-30
2022/03/31 07:02:20;;;;;;;25.60;10.90;;;;;;;0.84;100.00;98076.95;103538;1300;23617;-26
2022/03/31 07:04:46;;;;;;;25.20;16.80;;;;;;;0.78;100.00;98071.30;103582;1300;24285;-25
2022/03/31 07:07:12;;;;;;;25.30;15.50;;;;;;;0.82;100.00;98071.62;103436;1302;24180;-26
2022/03/31 07:09:37;;;;;;;20.80;12.50;;;;;;;0.82;100.00;98074.60;103526;1301;24432;-25
2022/03/31 07:12:03;;;;;;;26.00;13.50;;;;;;;0.88;100.00;98071.09;103535;1300;22504;-25
2022/03/31 07:14:33;;;;;;;16.50;11.20;;;;;;;1.01;100.00;98065.64;103550;1301;23955;-25
2022/03/31 07:16:59;;;;;;;22.40;13.80;;;;;;;0.94;100.00;98065.19;103474;1301;24289;-25
2022/03/31 07:19:24;;;;;;;26.40;15.90;;;;;;;0.92;100.00;98064.38;103529;1301;23752;-28
2022/03/31 07:21:52;;;;;;;29.60;15.00;;;;;;;1.01;100.00;98063.12;103514;1300;24215;-29
2022/03/31 07:24:17;;;;;;;26.90;15.00;;;;;;;0.92;100.00;98066.22;103320;1302;24387;-26
2022/03/31 07:26:43;;;;;;;32.20;16.30;;;;;;;1.09;100.00;98067.70;103540;1300;24358;-29
2022/03/31 07:29:09;;;;;;;27.40;16.00;;;;;;;0.92;100.00;98073.06;103533;1299;24195;-29
2022/03/31 07:31:34;;;;;;;24.00;13.20;;;;;;;0.88;100.00;98073.19;103546;1300;24314;-31
2022/03/31 07:34:00;;;;;;;33.70;15.90;;;;;;;0.88;100.00;98076.73;103570;1300;23510;-27
2022/03/31 07:36:26;;;;;;;32.20;20.10;;;;;;;1.16;100.00;98071.35;103657;1300;24253;-30
2022/03/31 07:38:52;;;;;;;28.20;15.00;;;;;;;1.04;100.00;98077.29;103503;1302;24214;-27
2022/03/31 07:41:18;;;;;;;33.80;20.10;;;;;;;0.98;100.00;98075.99;103513;1300;24302;-29
2022/03/31 07:43:44;;;;;;;41.10;22.60;;;;;;;1.19;100.00;98074.19;103556;1300;24358;-29
2022/03/31 07:46:11;;;;;;;34.90;19.40;;;;;;;1.05;100.00;98076.32;103647;1300;24192;-30
2022/03/31 07:48:37;;;;;;;32.20;17.80;;;;;;;1.05;100.00;98072.94;103480;1302;24234;-25
2022/03/31 07:51:03;;;;;;;23.60;11.80;;;;;;;1.28;100.00;98073.37;103522;1300;24192;-29
2022/03/31 07:53:33;;;;;;;21.80;13.30;;;;;;;1.15;100.00;98075.73;103605;1300;24245;-28
2022/03/31 07:56:00;;;;;;;32.50;13.10;;;;;;;1.43;100.00;98071.94;103714;1300;22495;-25
2022/03/31 07:58:26;;;;;;;33.90;21.40;;;;;;;1.23;100.00;98081.70;103602;1301;24252;-25
2022/03/31 08:00:52;;;;;;;34.70;18.50;;;;;;;1.59;100.00;98075.25;103754;1300;24282;-25
2022/03/31 08:03:18;;;;;;;36.70;23.40;;;;;;;1.65;99.33;98073.99;103682;1300;24404;-27
2022/03/31 08:05:45;;;;;;;51.30;27.20;;;;;;;1.60;99.15;98070.35;103668;1300;22496;-29
2022/03/31 08:08:12;;;;;;;40.10;20.20;;;;;;;1.23;100.00;98070.45;103652;1299;23007;-25
2022/03/31 08:10:37;;;;;;;40.00;15.80;;;;;;;1.20;100.00;98070.91;103719;1302;24240;-29
2022/03/31 08:13:04;;;;;;;30.60;14.40;;;;;;;1.22;100.00;98069.52;103643;1300;24228;-29
2022/03/31 08:15:30;;;;;;;48.80;29.40;;;;;;;1.27;100.00;98069.14;103561;1302;24356;-25
2022/03/31 08:17:58;;;;;;;39.10;24.60;;;;;;;1.53;100.00;98066.98;103628;1300;24283;-24
2022/03/31 08:20:25;;;;;;;31.80;16.10;;;;;;;1.61;100.00;98069.55;103495;1300;22548;-31
2022/03/31 08:22:51;;;;;;;48.10;26.90;;;;;;;1.71;100.00;98074.59;103634;1300;24305;-30
2022/03/31 08:25:17;;;;;;;41.00;18.20;;;;;;;1.69;100.00;98080.70;103583;1302;24267;-25
2022/03/31 08:27:45;;;;;;;49.00;29.50;;;;;;;1.97;99.78;98078.36;103661;1300;22499;-25
2022/03/31 08:30:13;;;;;;;41.10;23.30;;;;;;;2.16;98.57;98082.77;103674;1302;24224;-29
2022/03/31 08:32:42;;;;;;;39.40;21.40;;;;;;;1.83;98.67;98087.05;103630;1301;24304;-24
2022/03/31 08:35:08;;;;;;;33.80;21.40;;;;;;;1.84;99.30;98090.41;103572;1301;24315;-29
2022/03/31 08:37:35;;;;;;;39.60;26.00;;;;;;;1.84;98.96;98090.81;103588;1302;24239;-25
2022/03/31 08:40:01;;;;;;;39.00;23.80;;;;;;;1.99;98.73;98091.86;103329;1302;22611;-31
2022/03/31 08:42:27;;;;;;;22.50;12.60;;;;;;;2.04;97.92;98084.98;103283;1302;24238;-25
2022/03/31 08:44:54;;;;;;;48.30;28.10;;;;;;;1.68;98.11;98089.80;103604;1300;23864;-29
2022/03/31 08:47:20;;;;;;;59.70;30.40;;;;;;;1.80;98.63;98088.35;103462;1302;24359;-25
2022/03/31 08:49:49;;;;;;;49.00;28.90;;;;;;;1.90;98.26;98086.39;103585;1300;22502;-29
2022/03/31 08:52:15;;;;;;;52.10;25.90;;;;;;;2.17;96.87;98083.64;103530;1300;22741;-25
2022/03/31 08:54:41;;;;;;;54.00;25.80;;;;;;;2.05;96.94;98081.56;103713;1302;24252;-28
2022/03/31 08:57:06;;;;;;;41.40;27.30;;;;;;;1.99;97.05;98083.05;103705;1302;24369;-25
2022/03/31 08:59:32;;;;;;;35.00;21.80;;;;;;;2.00;97.16;98085.11;103587;1300;24214;-28
2022/03/31 09:01:58;;;;;;;38.60;24.10;;;;;;;1.97;97.24;98086.84;103637;1302;24223;-31
2022/03/31 09:04:24;;;;;;;37.50;21.40;;;;;;;2.05;97.21;98087.36;103692;1300;22629;-27
2022/03/31 09:06:57;;;;;;;34.80;23.30;;;;;;;2.35;96.50;98086.00;103692;1301;22849;-31
2022/03/31 09:09:23;;;;;;;30.10;21.00;;;;;;;2.25;95.50;98091.23;103679;1300;24039;-32
2022/03/31 09:11:50;;;;;;;34.20;19.20;;;;;;;1.94;96.52;98094.80;103646;1302;24311;-29
2022/03/31 09:14:16;;;;;;;36.50;23.30;;;;;;;2.23;96.18;98096.98;103574;1300;24269;-25
2022/03/31 09:16:43;;;;;;;38.80;23.20;;;;;;;2.36;94.91;98103.78;103594;1302;24402;-27
2022/03/31 09:19:10;;;;;;;24.90;15.10;;;;;;;2.15;94.85;98102.27;103683;1300;24242;-25
2022/03/31 09:21:52;;;;;;;32.80;21.60;;;;;;;1.83;95.97;98103.60;103625;1300;24305;-29
2022/03/31 09:24:20;;;;;;;35.50;16.30;;;;;;;2.26;95.48;98095.34;103573;1300;25237;-25
2022/03/31 09:26:47;;;;;;;30.10;19.40;;;;;;;2.18;95.18;98088.73;103552;1300;24241;-26
2022/03/31 09:29:13;;;;;;;27.50;18.80;;;;;;;2.17;95.11;98086.48;103657;1300;24338;-25
2022/03/31 09:31:39;;;;;;;36.80;20.40;;;;;;;2.15;94.41;98091.34;103547;1300;24239;-28
2022/03/31 09:34:05;;;;;;;39.60;21.10;;;;;;;2.33;94.33;98096.03;103544;1302;24237;-24
2022/03/31 09:36:31;;;;;;;31.70;23.10;;;;;;;2.37;94.05;98097.08;103547;1302;24327;-27
2022/03/31 09:38:58;;;;;;;36.60;24.80;;;;;;;2.52;92.18;98095.39;103545;1301;24365;-27
2022/03/31 09:41:26;;;;;;;38.20;22.60;;;;;;;2.54;92.40;98098.15;103497;1300;24218;-24
2022/03/31 09:43:53;;;;;;;36.90;23.80;;;;;;;2.37;93.53;98097.21;103583;1300;24218;-29
2022/03/31 09:46:23;;;;;;;33.70;18.10;;;;;;;2.56;93.92;98084.29;103549;1300;24428;-22
2022/03/31 09:48:50;;;;;;;55.40;28.90;;;;;;;2.33;94.42;98095.60;103541;1300;24346;-25
2022/03/31 09:51:17;;;;;;;35.40;19.80;;;;;;;2.62;93.98;98088.59;103562;1301;24247;-30
2022/03/31 09:53:43;;;;;;;32.90;22.10;;;;;;;2.77;92.63;98082.52;103310;1302;24301;-25
2022/03/31 09:56:08;;;;;;;25.10;15.80;;;;;;;2.76;91.75;98085.89;103641;1300;24218;-27
2022/03/31 09:58:37;;;;;;;32.30;20.50;;;;;;;2.48;91.67;98090.22;103529;1301;24237;-27
2022/03/31 10:01:04;;;;;;;41.70;24.00;;;;;;;2.33;92.64;98100.33;103556;1300;24248;-28
2022/03/31 10:03:29;;;;;;;29.30;21.20;;;;;;;2.51;93.15;98096.39;103600;1302;24278;-27
2022/03/31 10:05:56;;;;;;;37.20;19.50;;;;;;;2.89;91.46;98098.52;103479;1302;26291;-24
2022/03/31 10:08:22;;;;;;;35.60;23.30;;;;;;;2.62;91.48;98095.58;103542;1300;24218;-29
2022/03/31 10:10:48;;;;;;;36.90;21.30;;;;;;;2.94;90.02;98089.92;103613;1300;24302;-25
2022/03/31 10:13:18;;;;;;;37.10;24.30;;;;;;;2.67;90.89;98091.62;103575;1300;24264;-25
2022/03/31 10:15:44;;;;;;;30.20;20.40;;;;;;;2.71;90.96;98091.17;103561;1300;24292;-25
2022/03/31 10:18:13;;;;;;;48.90;25.50;;;;;;;2.82;89.92;98089.23;103596;1302;25344;-25
2022/03/31 10:20:39;;;;;;;42.20;25.30;;;;;;;2.57;89.92;98094.09;103582;1302;24411;-23
2022/03/31 10:25:36;;;;;;;41.60;22.30;;;;;;;2.54;91.70;98082.95;103572;1301;22514;-31
2022/03/31 10:28:07;;;;;;;34.40;24.70;;;;;;;2.44;91.61;98082.52;103604;1300;22798;-24
2022/03/31 10:30:33;;;;;;;42.20;22.00;;;;;;;2.74;91.81;98068.73;103596;1300;25348;-28
2022/03/31 10:33:01;;;;;;;30.30;20.40;;;;;;;2.51;91.32;98066.64;103550;1302;24320;-31
2022/03/31 10:35:31;;;;;;;35.30;22.60;;;;;;;2.42;92.16;98064.16;103538;1302;24273;-31
2022/03/31 10:37:58;;;;;;;39.80;20.20;;;;;;;2.69;92.09;98053.43;103512;1302;22636;-29
2022/03/31 10:40:29;;;;;;;33.20;22.40;;;;;;;2.36;91.97;98055.57;103581;1300;24213;-31
2022/03/31 10:42:55;;;;;;;41.30;23.10;;;;;;;2.71;91.56;98054.47;103565;1300;24358;-30
2022/03/31 10:45:21;;;;;;;46.20;23.70;;;;;;;2.40;92.36;98052.91;103492;1302;24316;-30
2022/03/31 10:47:47;;;;;;;32.30;19.40;;;;;;;2.40;92.96;98050.10;103478;1300;24249;-31
2022/03/31 10:50:23;;;;;;;38.60;23.70;;;;;;;2.08;94.14;98051.16;103490;1300;24253;-30
2022/03/31 10:52:56;;;;;;;37.20;26.40;;;;;;;2.22;94.12;98047.06;103505;1300;24238;-26
2022/03/31 10:55:21;;;;;;;40.20;25.20;;;;;;;2.69;93.47;98032.10;103541;1300;24215;-29
2022/03/31 10:57:47;;;;;;;31.20;21.00;;;;;;;2.75;91.54;98028.16;103560;1300;24290;-24
2022/03/31 11:00:14;;;;;;;33.20;20.90;;;;;;;2.54;91.68;98030.28;103534;1300;23613;-25
2022/03/31 11:02:42;;;;;;;40.40;23.20;;;;;;;2.25;92.71;98029.61;103557;1302;24334;-29
2022/03/31 11:05:08;;;;;;;33.60;22.80;;;;;;;2.27;93.18;98027.75;103565;1302;24217;-30
2022/03/31 11:07:34;;;;;;;33.50;21.10;;;;;;;2.50;92.87;98020.46;103582;1301;24238;-24
2022/03/31 11:10:01;;;;;;;40.90;24.50;;;;;;;2.64;92.19;98021.91;103573;1300;24375;-28
2022/03/31 11:12:28;;;;;;;44.60;25.40;;;;;;;2.83;91.02;98025.80;103515;1301;24228;-26